createdAt,value
2023-04-19T00:01:03.619Z,11.70
2023-04-19T00:03:30.263Z,10.00
2023-04-19T00:05:59.443Z,10.00
2023-04-19T00:08:25.816Z,9.90
2023-04-19T00:10:52.076Z,9.90
2023-04-19T00:13:18.216Z,9.80
2023-04-19T00:15:44.658Z,9.80
2023-04-19T00:18:10.778Z,9.80
2023-04-19T00:20:37.887Z,9.70
2023-04-19T00:23:04.017Z,9.70
2023-04-19T00:25:31.312Z,9.70
2023-04-19T00:27:57.580Z,9.60
2023-04-19T00:30:23.892Z,9.60
2023-04-19T00:32:50.042Z,9.60
2023-04-19T00:35:16.386Z,8.00
2023-04-19T00:37:42.528Z,9.40
2023-04-19T00:40:09.980Z,9.40
2023-04-19T00:42:36.262Z,9.40
2023-04-19T00:45:02.749Z,9.30
2023-04-19T00:47:29.436Z,9.30
2023-04-19T00:49:55.638Z,9.30
2023-04-19T00:52:22.087Z,9.20
2023-04-19T00:54:48.282Z,9.20
2023-04-19T00:57:15.923Z,9.10
2023-04-19T00:59:42.308Z,9.10
2023-04-19T01:02:09.278Z,9.00
2023-04-19T01:04:36.073Z,9.00
2023-04-19T01:07:02.713Z,8.90
2023-04-19T01:09:28.918Z,8.90
2023-04-19T01:11:55.209Z,8.90
2023-04-19T01:14:21.412Z,8.90
2023-04-19T01:16:47.544Z,8.90
2023-04-19T01:19:13.756Z,8.90
2023-04-19T01:21:39.890Z,8.80
2023-04-19T01:24:06.749Z,8.80
2023-04-19T01:26:32.915Z,8.70
2023-04-19T01:28:59.205Z,8.70
2023-04-19T01:31:25.648Z,8.70
2023-04-19T01:33:51.910Z,8.70
2023-04-19T01:36:18.045Z,8.60
2023-04-19T01:38:46.985Z,8.60
2023-04-19T01:41:13.334Z,8.50
2023-04-19T01:43:39.513Z,8.50
2023-04-19T01:46:05.676Z,8.50
2023-04-19T01:48:31.971Z,8.50
2023-04-19T01:50:58.202Z,8.50
2023-04-19T01:53:24.362Z,8.50
2023-04-19T01:55:50.514Z,8.40
2023-04-19T01:58:16.717Z,8.40
2023-04-19T02:00:42.948Z,8.40
2023-04-19T02:03:09.390Z,8.30
2023-04-19T02:05:37.972Z,8.30
2023-04-19T02:08:04.257Z,8.20
2023-04-19T02:10:30.417Z,7.90
2023-04-19T02:12:56.626Z,8.20
2023-04-19T02:15:22.899Z,8.10
2023-04-19T02:17:49.899Z,8.20
2023-04-19T02:20:16.368Z,8.10
2023-04-19T02:22:43.333Z,8.00
2023-04-19T02:25:09.795Z,8.00
2023-04-19T02:27:35.954Z,7.90
2023-04-19T02:30:02.306Z,7.90
2023-04-19T02:32:28.623Z,7.90
2023-04-19T02:34:54.857Z,7.80
2023-04-19T02:37:21.051Z,7.70
2023-04-19T02:39:47.267Z,7.70
2023-04-19T02:42:13.447Z,7.70
2023-04-19T02:44:39.707Z,7.70
2023-04-19T02:47:06.629Z,7.60
2023-04-19T02:49:35.792Z,7.60
2023-04-19T02:52:02.028Z,7.50
2023-04-19T02:54:28.259Z,7.50
2023-04-19T02:56:54.513Z,7.50
2023-04-19T02:59:20.699Z,7.40
2023-04-19T03:01:46.982Z,7.30
2023-04-19T03:04:13.655Z,7.30
2023-04-19T03:06:41.465Z,7.30
2023-04-19T03:09:07.703Z,7.30
2023-04-19T03:11:33.932Z,7.30
2023-04-19T03:14:00.173Z,7.30
2023-04-19T03:16:26.437Z,7.20
2023-04-19T03:18:52.740Z,7.20
2023-04-19T03:21:19.136Z,7.20
2023-04-19T03:23:45.344Z,7.20
2023-04-19T03:26:11.498Z,7.20
2023-04-19T03:28:37.731Z,7.20
2023-04-19T03:31:04.029Z,7.20
2023-04-19T03:33:30.269Z,7.20
2023-04-19T03:35:56.615Z,7.20
2023-04-19T03:38:22.844Z,7.20
2023-04-19T03:40:49.396Z,7.10
2023-04-19T03:43:15.561Z,7.10
2023-04-19T03:45:41.797Z,7.00
2023-04-19T03:48:08.152Z,7.00
2023-04-19T03:50:34.354Z,7.00
2023-04-19T03:53:00.618Z,6.90
2023-04-19T03:55:26.827Z,6.90
2023-04-19T03:57:53.049Z,6.90
2023-04-19T04:00:19.593Z,6.80
2023-04-19T04:02:45.914Z,6.80
2023-04-19T04:05:12.407Z,6.70
2023-04-19T04:07:38.818Z,6.70
2023-04-19T04:10:06.067Z,6.70
2023-04-19T04:12:32.225Z,6.70
2023-04-19T04:14:58.528Z,6.60
2023-04-19T04:17:24.946Z,6.60
2023-04-19T04:19:51.198Z,6.50
2023-04-19T04:22:17.380Z,6.50
2023-04-19T04:24:43.714Z,6.40
2023-04-19T04:27:10.146Z,5.90
2023-04-19T04:29:37.082Z,5.60
2023-04-19T04:32:10.021Z,5.30
2023-04-19T04:34:36.656Z,5.00
2023-04-19T04:37:03.129Z,4.90
2023-04-19T04:39:29.600Z,4.80
2023-04-19T04:41:57.197Z,4.80
2023-04-19T04:44:23.877Z,4.70
2023-04-19T04:46:50.135Z,4.60
2023-04-19T04:49:16.355Z,4.60
2023-04-19T04:51:42.691Z,4.60
2023-04-19T04:54:08.938Z,4.50
2023-04-19T04:56:36.661Z,4.50
2023-04-19T04:59:02.873Z,4.50
2023-04-19T05:01:29.830Z,4.50
2023-04-19T05:03:56.175Z,4.40
2023-04-19T05:06:22.326Z,4.40
2023-04-19T05:08:48.494Z,4.40
2023-04-19T05:11:14.877Z,4.50
2023-04-19T05:13:41.573Z,4.50
2023-04-19T05:16:07.926Z,4.50
2023-04-19T05:18:34.150Z,4.60
2023-04-19T05:21:00.588Z,4.50
2023-04-19T05:23:26.736Z,4.60
2023-04-19T05:25:52.914Z,4.60
2023-04-19T05:28:19.114Z,4.60
2023-04-19T05:30:45.377Z,4.60
2023-04-19T05:33:11.856Z,4.60
2023-04-19T05:35:38.021Z,4.60
2023-04-19T05:38:04.231Z,4.70
2023-04-19T05:40:30.909Z,4.60
2023-04-19T05:42:57.110Z,4.60
2023-04-19T05:45:25.326Z,4.60
2023-04-19T05:47:51.537Z,4.70
2023-04-19T05:50:19.791Z,4.60
2023-04-19T05:52:45.975Z,4.70
2023-04-19T05:55:12.558Z,4.70
2023-04-19T05:57:38.833Z,4.60
2023-04-19T06:00:08.166Z,4.60
2023-04-19T06:02:34.523Z,4.80
2023-04-19T06:05:09.522Z,4.80
2023-04-19T06:07:42.891Z,4.80
2023-04-19T06:10:13.452Z,4.80
2023-04-19T06:12:39.946Z,4.60
2023-04-19T06:15:07.314Z,4.60
2023-04-19T06:17:33.508Z,4.60
2023-04-19T06:19:59.684Z,4.60
2023-04-19T06:22:26.106Z,4.60
2023-04-19T06:24:52.306Z,4.60
2023-04-19T06:27:18.526Z,4.70
2023-04-19T06:29:44.845Z,4.70
2023-04-19T06:32:11.088Z,4.80
2023-04-19T06:34:37.451Z,4.90
2023-04-19T06:37:03.820Z,4.90
2023-04-19T06:39:30.074Z,4.90
2023-04-19T06:41:56.402Z,4.90
2023-04-19T06:44:22.641Z,4.80
2023-04-19T06:46:48.831Z,4.80
2023-04-19T06:49:14.963Z,4.90
2023-04-19T06:51:41.108Z,4.90
2023-04-19T06:54:07.307Z,4.80
2023-04-19T06:56:45.284Z,4.80
2023-04-19T06:59:12.739Z,4.80
2023-04-19T07:01:39.894Z,4.80
2023-04-19T07:04:07.193Z,6.30
2023-04-19T07:06:37.110Z,4.80
2023-04-19T07:09:03.742Z,4.80
2023-04-19T07:11:30.322Z,4.80
2023-04-19T07:13:56.626Z,5.00
2023-04-19T07:16:22.923Z,5.20
2023-04-19T07:18:49.603Z,6.90
2023-04-19T07:21:15.796Z,5.50
2023-04-19T07:23:42.305Z,5.20
2023-04-19T07:26:08.732Z,5.30
2023-04-19T07:28:35.072Z,5.30
2023-04-19T07:31:01.309Z,5.40
2023-04-19T07:33:28.289Z,5.80
2023-04-19T07:35:55.883Z,5.40
2023-04-19T07:38:22.357Z,5.50
2023-04-19T07:40:49.293Z,5.70
2023-04-19T07:43:16.061Z,5.70
2023-04-19T07:45:42.346Z,6.10
2023-04-19T07:48:08.770Z,6.00
2023-04-19T07:50:35.026Z,5.70
2023-04-19T07:53:01.251Z,5.70
2023-04-19T07:55:27.521Z,5.60
2023-04-19T07:57:53.721Z,5.70
2023-04-19T08:00:23.144Z,5.80
2023-04-19T08:02:49.572Z,6.10
2023-04-19T08:05:19.308Z,6.10
2023-04-19T08:07:45.610Z,6.20
2023-04-19T08:10:12.428Z,6.60
2023-04-19T08:12:45.003Z,6.50
2023-04-19T08:17:46.706Z,6.40
2023-04-19T08:20:13.896Z,6.60
2023-04-19T08:22:40.270Z,6.20
2023-04-19T08:25:07.817Z,6.10
2023-04-19T08:27:34.769Z,6.20
2023-04-19T08:30:00.982Z,6.20
2023-04-19T08:32:27.388Z,5.90
2023-04-19T08:34:54.228Z,5.70
2023-04-19T08:37:20.683Z,5.70
2023-04-19T08:39:47.244Z,5.80
2023-04-19T08:45:05.697Z,5.90
2023-04-19T08:50:24.160Z,6.20
2023-04-19T08:52:59.074Z,6.30
2023-04-19T08:55:32.003Z,6.20
2023-04-19T08:57:58.257Z,4.40
2023-04-19T09:00:24.772Z,6.30
2023-04-19T09:02:52.175Z,6.30
2023-04-19T09:05:18.819Z,6.70
2023-04-19T09:07:45.864Z,6.90
2023-04-19T09:10:13.821Z,7.00
2023-04-19T09:12:40.457Z,6.80
2023-04-19T09:15:09.906Z,6.90
2023-04-19T09:17:36.948Z,7.00
2023-04-19T09:20:04.092Z,7.10
2023-04-19T09:22:31.263Z,6.70
2023-04-19T09:27:32.102Z,6.30
2023-04-19T09:29:59.795Z,6.40
2023-04-19T09:32:26.287Z,6.50
2023-04-19T09:34:53.908Z,6.50
2023-04-19T09:37:39.089Z,6.50
2023-04-19T09:40:24.245Z,6.50
2023-04-19T09:48:01.707Z,6.30
2023-04-19T09:50:28.780Z,6.30
2023-04-19T09:52:55.329Z,6.60
2023-04-19T09:57:51.848Z,6.50
2023-04-19T10:00:20.982Z,8.80
2023-04-19T10:02:53.973Z,6.30
2023-04-19T10:05:21.991Z,6.30
2023-04-19T10:07:48.868Z,6.40
2023-04-19T10:10:20.906Z,7.90
2023-04-19T10:15:21.215Z,7.40
2023-04-19T10:17:47.718Z,6.70
2023-04-19T10:20:22.748Z,6.80
2023-04-19T10:22:49.170Z,6.60
2023-04-19T10:25:16.181Z,6.80
2023-04-19T10:27:47.994Z,6.80
2023-04-19T10:30:21.698Z,7.00
2023-04-19T10:32:58.644Z,7.80
2023-04-19T10:35:35.231Z,6.60
2023-04-19T10:38:12.312Z,6.70
2023-04-19T10:40:59.903Z,6.80
2023-04-19T10:43:27.626Z,6.80
2023-04-19T10:45:54.120Z,6.80
2023-04-19T10:48:57.448Z,6.70
2023-04-19T10:51:36.269Z,6.60
2023-04-19T10:54:03.570Z,6.50
2023-04-19T10:57:12.133Z,6.40
2023-04-19T10:59:39.952Z,6.30
2023-04-19T11:02:27.570Z,6.20
2023-04-19T11:05:03.186Z,6.40
2023-04-19T11:07:36.710Z,6.40
2023-04-19T11:10:03.069Z,6.40
2023-04-19T11:12:29.380Z,6.40
2023-04-19T11:14:57.343Z,6.50
2023-04-19T11:17:28.432Z,6.60
2023-04-19T11:20:08.712Z,6.50
2023-04-19T11:22:39.539Z,6.40
2023-04-19T11:25:13.490Z,6.50
2023-04-19T11:27:41.188Z,6.40
2023-04-19T11:30:09.070Z,6.30
2023-04-19T11:32:35.618Z,6.30
2023-04-19T11:35:07.492Z,6.30
2023-04-19T11:37:36.222Z,6.40
2023-04-19T11:40:05.040Z,6.40
2023-04-19T11:42:32.034Z,6.40
2023-04-19T11:44:59.208Z,6.40
2023-04-19T11:47:28.530Z,6.40
2023-04-19T11:49:58.392Z,6.40
2023-04-19T11:52:25.379Z,6.50
2023-04-19T11:54:52.398Z,6.50
2023-04-19T11:57:30.984Z,6.20
2023-04-19T12:00:11.328Z,6.20
2023-04-19T12:02:44.257Z,6.20
2023-04-19T12:05:14.933Z,6.30
2023-04-19T12:08:08.681Z,8.10
2023-04-19T12:10:35.400Z,6.30
2023-04-19T12:13:15.656Z,6.30
2023-04-19T12:15:45.462Z,6.20
2023-04-19T12:18:12.110Z,6.30
2023-04-19T12:20:42.604Z,6.40
2023-04-19T12:23:10.572Z,6.30
2023-04-19T12:25:36.872Z,6.20
2023-04-19T12:28:03.537Z,6.20
2023-04-19T12:30:29.788Z,6.20
2023-04-19T12:32:56.021Z,6.20
2023-04-19T12:35:23.285Z,6.10
2023-04-19T12:37:52.118Z,6.00
2023-04-19T12:40:18.904Z,5.90
2023-04-19T12:42:46.026Z,5.80
2023-04-19T12:45:12.507Z,5.70
2023-04-19T12:47:39.439Z,5.70
2023-04-19T12:50:07.020Z,5.70
2023-04-19T12:52:33.521Z,5.60
2023-04-19T12:55:00.795Z,5.70
2023-04-19T12:57:27.256Z,5.60
2023-04-19T12:59:53.481Z,5.60
2023-04-19T13:02:20.408Z,5.60
2023-04-19T13:04:47.327Z,5.70
2023-04-19T13:07:14.637Z,5.80
2023-04-19T13:09:41.161Z,5.80
2023-04-19T13:12:07.574Z,5.80
2023-04-19T13:14:33.862Z,5.80
2023-04-19T13:17:00.298Z,5.80
2023-04-19T13:19:26.616Z,6.00
2023-04-19T13:21:52.839Z,6.00
2023-04-19T13:24:19.345Z,6.10
2023-04-19T13:26:45.811Z,6.10
2023-04-19T13:29:12.335Z,6.30
2023-04-19T13:31:38.615Z,6.30
2023-04-19T13:34:04.954Z,6.50
2023-04-19T13:36:31.613Z,6.30
2023-04-19T13:38:57.969Z,6.40
2023-04-19T13:41:24.216Z,8.40
2023-04-19T13:43:50.612Z,6.40
2023-04-19T13:46:16.895Z,6.40
2023-04-19T13:48:43.053Z,6.40
2023-04-19T13:51:09.977Z,6.70
2023-04-19T13:53:36.268Z,6.40
2023-04-19T13:56:02.644Z,6.50
2023-04-19T13:58:28.936Z,6.40
2023-04-19T14:00:55.146Z,6.60
2023-04-19T14:03:22.064Z,6.50
2023-04-19T14:05:48.544Z,6.60
2023-04-19T14:08:14.679Z,6.60
2023-04-19T14:10:40.981Z,6.50
2023-04-19T14:13:07.263Z,6.40
2023-04-19T14:15:33.551Z,6.40
2023-04-19T14:18:00.150Z,6.60
2023-04-19T14:20:26.556Z,7.10
2023-04-19T14:22:54.579Z,7.10
2023-04-19T14:25:20.841Z,7.10
2023-04-19T14:27:47.027Z,7.20
2023-04-19T14:30:13.496Z,7.00
2023-04-19T14:32:39.825Z,6.80
2023-04-19T14:35:07.809Z,6.90
2023-04-19T14:37:34.034Z,6.90
2023-04-19T14:40:00.362Z,7.10
2023-04-19T14:42:26.677Z,7.20
2023-04-19T14:44:53.080Z,7.10
2023-04-19T14:47:20.328Z,7.00
2023-04-19T14:49:46.632Z,7.10
2023-04-19T14:52:12.837Z,7.20
2023-04-19T14:54:39.115Z,7.20
2023-04-19T14:57:05.512Z,7.10
2023-04-19T14:59:31.708Z,7.10
2023-04-19T15:01:58.055Z,6.90
2023-04-19T15:04:24.645Z,6.80
2023-04-19T15:06:51.113Z,6.80
2023-04-19T15:09:17.877Z,6.90
2023-04-19T15:11:44.470Z,6.90
2023-04-19T15:14:10.875Z,6.90
2023-04-19T15:16:38.476Z,7.00
2023-04-19T15:19:06.844Z,6.80
2023-04-19T15:21:33.729Z,6.70
2023-04-19T15:24:00.742Z,6.70
2023-04-19T15:26:26.954Z,6.60
2023-04-19T15:28:54.371Z,6.70
2023-04-19T15:31:20.997Z,6.80
2023-04-19T15:33:47.381Z,6.70
2023-04-19T15:36:13.804Z,6.80
2023-04-19T15:38:40.426Z,7.00
2023-04-19T15:41:07.776Z,7.10
2023-04-19T15:43:34.724Z,7.10
2023-04-19T15:46:01.190Z,6.50
2023-04-19T15:48:27.803Z,7.00
2023-04-19T15:50:54.135Z,7.00
2023-04-19T15:53:20.766Z,6.90
2023-04-19T15:55:47.628Z,6.80
2023-04-19T15:58:14.615Z,6.80
2023-04-19T16:00:40.825Z,6.90
2023-04-19T16:03:09.178Z,6.90
2023-04-19T16:05:35.601Z,6.80
2023-04-19T16:08:08.874Z,6.80
2023-04-19T16:10:35.624Z,6.90
2023-04-19T16:13:03.360Z,6.80
2023-04-19T16:15:29.745Z,6.70
2023-04-19T16:17:59.116Z,6.60
2023-04-19T16:20:25.512Z,6.60
2023-04-19T16:22:51.842Z,6.50
2023-04-19T16:25:18.739Z,6.60
2023-04-19T16:27:45.506Z,6.50
2023-04-19T16:30:12.091Z,6.60
2023-04-19T16:32:42.155Z,6.60
2023-04-19T16:35:09.107Z,6.50
2023-04-19T16:37:35.437Z,6.50
2023-04-19T16:40:08.556Z,6.50
2023-04-19T16:42:35.207Z,6.50
2023-04-19T16:45:01.444Z,6.60
2023-04-19T16:47:29.569Z,6.50
2023-04-19T16:49:56.774Z,6.60
2023-04-19T16:52:24.585Z,6.60
2023-04-19T16:54:50.983Z,6.50
2023-04-19T16:57:17.279Z,6.70
2023-04-19T16:59:43.482Z,6.70
2023-04-19T17:02:10.518Z,6.70
2023-04-19T17:04:37.222Z,6.70
2023-04-19T17:07:03.642Z,6.70
2023-04-19T17:09:29.986Z,6.70
2023-04-19T17:11:56.872Z,6.70
2023-04-19T17:14:23.612Z,8.10
2023-04-19T17:16:51.224Z,6.60
2023-04-19T17:19:18.056Z,6.60
2023-04-19T17:21:44.778Z,6.60
2023-04-19T17:24:11.516Z,6.50
2023-04-19T17:26:37.757Z,6.60
2023-04-19T17:29:11.734Z,6.50
2023-04-19T17:31:38.072Z,6.50
2023-04-19T17:34:04.794Z,6.40
2023-04-19T17:36:31.488Z,6.30
2023-04-19T17:39:00.267Z,6.30
2023-04-19T17:41:28.237Z,6.30
2023-04-19T17:43:56.649Z,6.30
2023-04-19T17:46:25.676Z,6.30
2023-04-19T17:48:53.033Z,6.30
2023-04-19T17:51:19.448Z,6.30
2023-04-19T17:53:46.604Z,6.20
2023-04-19T17:56:12.866Z,6.20
2023-04-19T17:58:40.521Z,6.20
2023-04-19T18:01:08.345Z,6.20
2023-04-19T18:03:35.356Z,6.20
2023-04-19T18:06:01.806Z,6.20
2023-04-19T18:08:28.899Z,6.20
2023-04-19T18:10:55.209Z,6.20
2023-04-19T18:13:22.042Z,6.20
2023-04-19T18:15:48.439Z,6.10
2023-04-19T18:18:15.380Z,6.20
2023-04-19T18:20:43.640Z,6.20
2023-04-19T18:23:09.842Z,6.10
2023-04-19T18:25:37.014Z,6.10
2023-04-19T18:28:04.097Z,6.10
2023-04-19T18:30:30.670Z,6.10
2023-04-19T18:32:58.297Z,6.10
2023-04-19T18:35:25.302Z,6.10
2023-04-19T18:37:51.656Z,6.10
2023-04-19T18:40:18.575Z,6.10
2023-04-19T18:42:45.412Z,6.10
2023-04-19T18:45:12.107Z,6.10
2023-04-19T18:47:38.850Z,6.00
2023-04-19T18:50:07.875Z,6.00
2023-04-19T18:52:35.635Z,6.00
2023-04-19T18:55:03.207Z,6.00
2023-04-19T18:57:34.177Z,6.00
2023-04-19T19:00:03.075Z,6.00
2023-04-19T19:02:30.455Z,6.00
2023-04-19T19:05:01.191Z,5.90
2023-04-19T19:10:03.603Z,5.80
2023-04-19T19:12:32.704Z,5.70
2023-04-19T19:14:59.400Z,5.70
2023-04-19T19:17:28.209Z,5.70
2023-04-19T19:19:55.963Z,5.60
2023-04-19T19:22:27.584Z,5.60
2023-04-19T19:24:54.924Z,5.50
2023-04-19T19:27:21.682Z,5.40
2023-04-19T19:29:48.260Z,5.40
2023-04-19T19:32:14.915Z,5.40
2023-04-19T19:34:51.787Z,5.40
2023-04-19T19:37:21.864Z,5.30
2023-04-19T19:39:48.178Z,5.30
2023-04-19T19:42:18.102Z,5.30
2023-04-19T19:44:44.500Z,5.20
2023-04-19T19:47:11.768Z,5.20
2023-04-19T19:52:07.510Z,5.20
2023-04-19T19:54:33.895Z,5.30
2023-04-19T19:57:52.912Z,5.30
2023-04-19T20:00:46.939Z,5.30
2023-04-19T20:03:19.041Z,5.30
2023-04-19T20:05:57.042Z,5.30
2023-04-19T20:08:24.048Z,5.30
2023-04-19T20:10:51.061Z,5.40
2023-04-19T20:13:17.606Z,5.30
2023-04-19T20:15:46.558Z,5.30
2023-04-19T20:18:16.477Z,5.40
2023-04-19T20:20:43.313Z,5.40
2023-04-19T20:23:10.611Z,5.40
2023-04-19T20:25:39.672Z,5.40
2023-04-19T20:28:07.170Z,5.40
2023-04-19T20:30:33.740Z,5.40
2023-04-19T20:33:00.601Z,5.40
2023-04-19T20:35:27.323Z,5.30
2023-04-19T20:37:53.973Z,5.40
2023-04-19T20:40:22.210Z,5.30
2023-04-19T20:42:48.412Z,5.30
2023-04-19T20:45:14.762Z,5.30
2023-04-19T20:47:42.218Z,5.20
2023-04-19T20:50:08.697Z,5.10
2023-04-19T20:52:35.075Z,5.10
2023-04-19T20:55:01.254Z,5.00
2023-04-19T20:57:27.532Z,4.90
2023-04-19T20:59:53.744Z,4.90
2023-04-19T21:02:20.221Z,4.80
2023-04-19T21:04:47.346Z,4.80
2023-04-19T21:07:13.566Z,4.80
2023-04-19T21:09:40.315Z,4.70
2023-04-19T21:12:07.072Z,4.70
2023-04-19T21:14:33.486Z,4.70
2023-04-19T21:17:00.667Z,4.70
2023-04-19T21:19:26.861Z,4.60
2023-04-19T21:21:53.018Z,4.70
2023-04-19T21:24:19.719Z,4.70
2023-04-19T21:26:45.946Z,4.70
2023-04-19T21:29:12.295Z,4.70
2023-04-19T21:31:38.600Z,4.70
2023-04-19T21:34:04.957Z,4.80
2023-04-19T21:36:32.675Z,4.80
2023-04-19T21:38:59.044Z,4.80
2023-04-19T21:41:25.270Z,4.80
2023-04-19T21:43:51.596Z,4.90
2023-04-19T21:46:17.908Z,4.90
2023-04-19T21:48:44.206Z,4.90
2023-04-19T21:51:12.090Z,5.00
2023-04-19T21:53:38.270Z,5.00
2023-04-19T21:56:05.253Z,5.00
2023-04-19T21:58:31.435Z,5.10
2023-04-19T22:00:57.642Z,7.50
2023-04-19T22:03:23.970Z,5.20
2023-04-19T22:05:50.982Z,5.20
2023-04-19T22:08:17.365Z,5.20
2023-04-19T22:10:44.128Z,5.20
2023-04-19T22:13:10.324Z,5.20
2023-04-19T22:15:36.835Z,5.20
2023-04-19T22:18:04.038Z,5.20
2023-04-19T22:20:31.420Z,5.20
2023-04-19T22:22:57.709Z,5.20
2023-04-19T22:25:23.884Z,5.20
2023-04-19T22:27:50.349Z,5.20
2023-04-19T22:30:16.612Z,5.20
2023-04-19T22:32:42.883Z,5.20
2023-04-19T22:35:09.135Z,5.30
2023-04-19T22:37:35.345Z,5.20
2023-04-19T22:40:01.537Z,5.20
2023-04-19T22:42:27.678Z,5.20
2023-04-19T22:44:53.809Z,5.30
2023-04-19T22:47:20.482Z,5.30
2023-04-19T22:49:47.508Z,5.30
2023-04-19T22:52:13.735Z,5.30
2023-04-19T22:54:40.160Z,3.70
2023-04-19T22:57:06.393Z,5.30
2023-04-19T22:59:32.532Z,5.30
2023-04-19T23:01:58.787Z,5.30
2023-04-19T23:04:25.144Z,5.30
2023-04-19T23:06:51.829Z,5.30
2023-04-19T23:09:18.347Z,5.30
2023-04-19T23:11:46.900Z,5.30
2023-04-19T23:14:13.304Z,5.40
2023-04-19T23:16:39.762Z,5.30
2023-04-19T23:19:06.862Z,5.40
2023-04-19T23:21:33.577Z,5.40
2023-04-19T23:23:59.761Z,5.40
2023-04-19T23:26:25.873Z,5.40
2023-04-19T23:28:52.094Z,5.40
2023-04-19T23:31:18.327Z,4.80
2023-04-19T23:33:44.815Z,5.50
2023-04-19T23:36:11.097Z,5.50
2023-04-19T23:38:37.285Z,5.50
2023-04-19T23:41:03.569Z,5.50
2023-04-19T23:43:29.946Z,5.50
2023-04-19T23:45:56.118Z,5.50
2023-04-19T23:48:22.607Z,5.50
2023-04-19T23:50:48.746Z,5.50
2023-04-19T23:53:15.065Z,6.60
2023-04-19T23:55:41.264Z,3.40
2023-04-19T23:58:07.501Z,5.50
